createdAt,value
2022-08-17T00:01:07.895Z,91634.09
2022-08-17T00:03:38.748Z,91633.69
2022-08-17T00:06:06.019Z,91644.06
2022-08-17T00:08:33.296Z,91644.22
2022-08-17T00:11:00.590Z,91648.63
2022-08-17T00:13:27.875Z,91659.38
2022-08-17T00:15:55.140Z,91668.63
2022-08-17T00:19:04.185Z,91677.44
2022-08-17T00:21:11.663Z,91661.44
2022-08-17T00:23:38.942Z,91669.84
2022-08-17T00:26:11.806Z,91675.31
2022-08-17T00:28:39.103Z,91688.28
2022-08-17T00:31:06.384Z,91696.91
2022-08-17T00:33:33.662Z,91696.03
2022-08-17T00:36:00.952Z,91698.72
2022-08-17T00:38:28.225Z,91700.31
2022-08-17T00:40:59.327Z,91697.50
2022-08-17T00:43:26.739Z,91693.16
2022-08-17T00:45:54.007Z,91700.16
2022-08-17T00:48:26.195Z,91695.28
2022-08-17T00:50:57.597Z,91688.22
2022-08-17T00:53:24.892Z,91684.81
2022-08-17T00:55:52.180Z,91682.88
2022-08-17T00:58:20.388Z,91686.09
2022-08-17T01:01:03.328Z,91688.56
2022-08-17T01:03:30.648Z,91675.97
2022-08-17T01:05:57.931Z,91667.22
2022-08-17T01:08:25.490Z,91665.00
2022-08-17T01:11:00.789Z,91666.50
2022-08-17T01:13:28.970Z,91675.28
2022-08-17T01:15:56.274Z,91673.81
2022-08-17T01:18:23.567Z,91675.44
2022-08-17T01:20:50.840Z,91673.22
2022-08-17T01:23:20.509Z,91676.47
2022-08-17T01:25:48.732Z,91689.69
2022-08-17T01:28:52.568Z,91689.44
2022-08-17T01:31:05.694Z,91683.53
2022-08-17T01:33:32.983Z,91694.84
2022-08-17T01:36:00.248Z,91690.53
2022-08-17T01:38:27.554Z,91693.91
2022-08-17T01:40:57.503Z,91695.00
2022-08-17T01:43:25.092Z,91693.53
2022-08-17T01:46:03.381Z,91694.19
2022-08-17T01:48:31.214Z,91694.41
2022-08-17T01:53:26.541Z,91705.88
2022-08-17T01:55:53.833Z,91704.47
2022-08-17T01:58:21.139Z,91709.09
2022-08-17T02:00:48.418Z,91707.59
2022-08-17T02:03:27.655Z,91689.69
2022-08-17T02:05:54.945Z,91689.47
2022-08-17T02:08:38.824Z,91692.19
2022-08-17T02:11:11.337Z,91696.63
2022-08-17T02:13:39.116Z,91696.56
2022-08-17T02:16:06.419Z,91704.59
2022-08-17T02:18:33.719Z,91704.31
2022-08-17T02:21:01.007Z,91702.63
2022-08-17T02:23:28.291Z,91708.38
2022-08-17T02:25:55.581Z,91713.41
2022-08-17T02:28:22.874Z,91717.78
2022-08-17T02:31:00.993Z,91707.44
2022-08-17T02:33:37.292Z,91726.16
2022-08-17T02:36:10.687Z,91723.81
2022-08-17T02:38:37.984Z,91741.75
2022-08-17T02:41:05.265Z,91736.44
2022-08-17T02:43:32.566Z,91738.97
2022-08-17T02:45:59.851Z,91728.13
2022-08-17T02:48:31.280Z,91712.03
2022-08-17T02:50:59.214Z,91701.78
2022-08-17T02:53:26.507Z,91692.38
2022-08-17T02:55:53.820Z,91672.53
2022-08-17T02:58:34.382Z,91650.19
2022-08-17T03:01:03.179Z,91576.59
2022-08-17T03:03:30.463Z,91598.84
2022-08-17T03:05:57.744Z,91622.16
2022-08-17T03:08:25.058Z,91618.84
2022-08-17T03:10:52.348Z,91621.28
2022-08-17T03:13:19.736Z,91610.34
2022-08-17T03:15:47.015Z,91598.09
2022-08-17T03:18:24.663Z,91607.88
2022-08-17T03:20:53.140Z,91609.03
2022-08-17T03:23:23.847Z,91602.81
2022-08-17T03:25:53.113Z,91609.13
2022-08-17T03:28:20.912Z,91604.53
2022-08-17T03:30:48.238Z,91598.34
2022-08-17T03:33:15.556Z,91598.22
2022-08-17T03:35:42.854Z,91584.34
2022-08-17T03:38:10.167Z,91581.91
2022-08-17T03:40:58.931Z,91578.00
2022-08-17T03:43:24.705Z,91578.34
2022-08-17T03:45:51.986Z,91581.19
2022-08-17T03:48:20.761Z,91576.97
2022-08-17T03:50:48.061Z,91563.72
2022-08-17T03:53:15.341Z,91562.16
2022-08-17T03:55:42.618Z,91568.34
2022-08-17T03:58:09.916Z,91586.13
2022-08-17T04:00:39.695Z,91580.09
2022-08-17T04:03:07.150Z,91581.75
2022-08-17T04:05:36.348Z,91579.34
2022-08-17T04:08:03.626Z,91578.19
2022-08-17T04:10:33.968Z,91583.56
2022-08-17T04:13:12.497Z,91582.22
2022-08-17T04:15:39.814Z,91592.00
2022-08-17T04:18:07.583Z,91590.16
2022-08-17T04:20:38.371Z,91594.66
2022-08-17T04:23:05.649Z,91590.78
2022-08-17T04:25:32.926Z,91585.00
2022-08-17T04:28:00.233Z,91585.22
2022-08-17T04:30:27.507Z,91608.28
2022-08-17T04:33:00.786Z,91598.13
2022-08-17T04:35:32.962Z,91588.84
2022-08-17T04:38:00.294Z,91589.34
2022-08-17T04:40:27.638Z,91588.66
2022-08-17T04:43:00.171Z,91596.94
2022-08-17T04:45:32.079Z,91595.97
2022-08-17T04:47:59.862Z,91595.66
2022-08-17T04:50:27.166Z,91601.31
2022-08-17T04:52:54.619Z,91593.47
2022-08-17T04:55:22.122Z,91586.66
2022-08-17T04:57:49.436Z,91586.13
2022-08-17T05:00:16.717Z,91590.56
2022-08-17T05:02:49.587Z,91594.94
2022-08-17T05:05:19.746Z,91600.31
2022-08-17T05:07:48.133Z,91606.31
2022-08-17T05:10:15.420Z,91608.53
2022-08-17T05:12:42.758Z,91613.13
2022-08-17T05:15:10.082Z,91611.47
2022-08-17T05:17:37.360Z,91611.88
2022-08-17T05:20:04.665Z,91609.59
2022-08-17T05:22:31.975Z,91612.91
2022-08-17T05:24:59.252Z,91619.31
2022-08-17T05:27:35.145Z,91612.31
2022-08-17T05:30:03.284Z,91622.22
2022-08-17T05:32:38.805Z,91611.69
2022-08-17T05:35:07.547Z,91612.63
2022-08-17T05:37:34.820Z,91620.84
2022-08-17T05:40:02.159Z,91623.88
2022-08-17T05:42:29.542Z,91622.56
2022-08-17T05:44:56.820Z,91636.88
2022-08-17T05:47:24.122Z,91643.28
2022-08-17T05:49:51.433Z,91642.72
2022-08-17T05:52:21.215Z,91646.16
2022-08-17T05:54:48.510Z,91655.59
2022-08-17T05:57:15.815Z,91645.47
2022-08-17T05:59:43.318Z,91639.47
2022-08-17T06:02:10.592Z,91646.03
2022-08-17T06:04:37.919Z,91649.63
2022-08-17T06:07:05.206Z,91648.22
2022-08-17T06:09:33.995Z,91654.84
2022-08-17T06:12:01.462Z,91648.25
2022-08-17T06:14:29.817Z,91659.56
2022-08-17T06:16:57.119Z,91666.94
2022-08-17T06:19:24.435Z,91662.03
2022-08-17T06:21:51.736Z,91676.66
2022-08-17T06:24:19.028Z,91680.72
2022-08-17T06:26:46.619Z,91678.41
2022-08-17T06:29:18.737Z,91679.66
2022-08-17T06:31:46.404Z,91686.50
2022-08-17T06:34:15.781Z,91684.69
2022-08-17T06:36:43.076Z,91683.59
2022-08-17T06:39:10.386Z,91686.53
2022-08-17T06:41:38.096Z,91689.50
2022-08-17T06:44:05.485Z,91698.94
2022-08-17T06:46:32.773Z,91696.75
2022-08-17T06:49:00.082Z,91696.75
2022-08-17T06:51:27.382Z,91697.94
2022-08-17T06:53:54.694Z,91708.72
2022-08-17T06:56:21.999Z,91703.13
2022-08-17T06:58:49.305Z,91704.09
2022-08-17T07:01:16.696Z,91716.09
2022-08-17T07:03:44.052Z,91726.13
2022-08-17T07:06:11.355Z,91723.25
2022-08-17T07:08:38.677Z,91729.41
2022-08-17T07:11:06.002Z,91742.94
2022-08-17T07:13:33.294Z,91756.13
2022-08-17T07:16:00.578Z,91745.78
2022-08-17T07:18:27.896Z,91745.31
2022-08-17T07:20:56.282Z,91748.66
2022-08-17T07:23:23.611Z,91739.97
2022-08-17T07:25:50.897Z,91728.81
2022-08-17T07:28:18.214Z,91734.16
2022-08-17T07:30:47.314Z,91745.66
2022-08-17T07:33:15.243Z,91736.50
2022-08-17T07:35:44.247Z,91743.53
2022-08-17T07:38:24.989Z,91752.63
2022-08-17T07:40:53.866Z,91738.63
2022-08-17T07:43:23.184Z,91733.97
2022-08-17T07:45:50.965Z,91720.16
2022-08-17T07:48:18.256Z,91716.81
2022-08-17T07:50:49.572Z,91717.69
2022-08-17T07:53:18.047Z,91711.13
2022-08-17T07:55:45.354Z,91714.63
2022-08-17T07:58:12.643Z,91718.84
2022-08-17T08:00:39.924Z,91728.84
2022-08-17T08:03:07.228Z,91730.13
2022-08-17T08:05:50.376Z,91728.47
2022-08-17T08:08:18.196Z,91733.13
2022-08-17T08:10:45.628Z,91730.09
2022-08-17T08:13:14.240Z,91737.50
2022-08-17T08:15:44.982Z,91736.75
2022-08-17T08:18:45.916Z,91736.47
2022-08-17T08:21:08.519Z,91737.63
2022-08-17T08:23:35.802Z,91734.06
2022-08-17T08:26:03.085Z,91721.53
2022-08-17T08:28:30.404Z,91729.56
2022-08-17T08:30:57.690Z,91728.03
2022-08-17T08:33:24.976Z,91728.97
2022-08-17T08:35:52.290Z,91727.13
2022-08-17T08:38:21.528Z,91726.56
2022-08-17T08:40:48.810Z,91742.69
2022-08-17T08:43:16.326Z,91738.50
2022-08-17T08:45:43.608Z,91740.59
2022-08-17T08:48:12.821Z,91744.84
2022-08-17T08:50:58.124Z,91738.25
2022-08-17T08:53:25.956Z,91731.22
2022-08-17T08:55:53.242Z,91733.59
2022-08-17T08:58:31.802Z,91740.94
2022-08-17T09:01:07.832Z,91740.59
2022-08-17T09:03:52.907Z,91738.41
2022-08-17T09:06:32.577Z,91745.09
2022-08-17T09:09:06.927Z,91740.91
2022-08-17T09:11:34.225Z,91740.00
2022-08-17T09:14:28.194Z,91744.66
2022-08-17T09:16:56.144Z,91743.44
2022-08-17T09:19:25.368Z,91740.03
2022-08-17T09:21:52.637Z,91735.28
2022-08-17T09:24:20.680Z,91726.16
2022-08-17T09:26:48.280Z,91723.41
2022-08-17T09:29:15.550Z,91731.34
2022-08-17T09:31:48.849Z,91738.97
2022-08-17T09:34:16.858Z,91742.53
2022-08-17T09:36:44.144Z,91741.13
2022-08-17T09:39:11.423Z,91744.84
2022-08-17T09:41:38.679Z,91742.00
2022-08-17T09:44:23.110Z,91747.53
2022-08-17T09:46:50.814Z,91733.59
2022-08-17T09:49:20.715Z,91739.88
2022-08-17T09:51:51.964Z,91739.75
2022-08-17T09:54:38.009Z,91734.25
2022-08-17T09:57:28.754Z,91744.16
2022-08-17T09:59:53.709Z,91745.84
2022-08-17T10:02:20.995Z,91734.97
2022-08-17T10:04:48.395Z,91744.06
2022-08-17T10:07:15.678Z,91744.31
2022-08-17T10:09:42.956Z,91743.03
2022-08-17T10:12:10.251Z,91742.63
2022-08-17T10:14:44.435Z,91742.84
2022-08-17T10:17:11.954Z,91730.00
2022-08-17T10:19:39.257Z,91736.75
2022-08-17T10:22:32.376Z,91736.44
2022-08-17T10:25:21.129Z,91729.00
2022-08-17T10:27:45.849Z,91726.72
2022-08-17T10:30:13.178Z,91725.69
2022-08-17T10:32:41.602Z,91722.09
2022-08-17T10:35:08.904Z,91725.47
2022-08-17T10:37:36.183Z,91720.03
2022-08-17T10:40:03.495Z,91723.69
2022-08-17T10:42:32.965Z,91715.44
2022-08-17T10:45:00.590Z,91710.50
2022-08-17T10:47:27.876Z,91708.53
2022-08-17T10:49:55.270Z,91702.47
2022-08-17T10:52:25.076Z,91701.31
2022-08-17T10:54:58.344Z,91700.66
2022-08-17T10:57:26.120Z,91703.97
2022-08-17T10:59:53.412Z,91699.22
2022-08-17T11:02:20.692Z,91699.63
2022-08-17T11:04:47.992Z,91699.13
2022-08-17T11:07:15.271Z,91694.94
2022-08-17T11:09:42.559Z,91700.38
2022-08-17T11:12:09.855Z,91702.22
2022-08-17T11:14:37.153Z,91698.06
2022-08-17T11:17:04.438Z,91684.28
2022-08-17T11:19:31.890Z,91679.03
2022-08-17T11:21:59.173Z,91689.69
2022-08-17T11:24:26.445Z,91689.41
2022-08-17T11:26:53.737Z,91685.59
2022-08-17T11:29:21.017Z,91691.03
2022-08-17T11:31:51.977Z,91685.72
2022-08-17T11:34:21.505Z,91694.81
2022-08-17T11:36:48.774Z,91684.06
2022-08-17T11:39:16.050Z,91688.22
2022-08-17T11:41:43.366Z,91692.53
2022-08-17T11:44:10.653Z,91681.94
2022-08-17T11:46:37.938Z,91683.59
2022-08-17T11:49:08.826Z,91682.41
2022-08-17T11:51:36.476Z,91681.09
2022-08-17T11:54:31.196Z,91676.84
2022-08-17T11:56:51.000Z,91678.59
2022-08-17T11:59:18.285Z,91664.78
2022-08-17T12:01:45.569Z,91663.63
2022-08-17T12:04:12.888Z,91662.25
2022-08-17T12:06:40.191Z,91659.25
2022-08-17T12:09:07.456Z,91652.56
2022-08-17T12:12:11.010Z,91649.56
2022-08-17T12:14:29.409Z,91656.72
2022-08-17T12:17:07.312Z,91657.41
2022-08-17T12:19:36.129Z,91645.28
2022-08-17T12:22:03.392Z,91651.66
2022-08-17T12:24:30.689Z,91642.44
2022-08-17T12:26:57.969Z,91638.94
2022-08-17T12:29:35.439Z,91637.84
2022-08-17T12:32:06.305Z,91649.53
2022-08-17T12:34:33.586Z,91643.41
2022-08-17T12:37:00.871Z,91637.50
2022-08-17T12:39:28.211Z,91640.97
2022-08-17T12:42:02.712Z,91639.69
2022-08-17T12:44:30.274Z,91631.84
2022-08-17T12:46:57.571Z,91631.41
2022-08-17T12:49:24.843Z,91629.56
2022-08-17T12:51:52.140Z,91619.25
2022-08-17T12:54:19.403Z,91623.78
2022-08-17T12:56:47.667Z,91617.38
2022-08-17T12:59:14.995Z,91616.44
2022-08-17T13:01:56.945Z,91596.28
2022-08-17T13:04:24.585Z,91603.25
2022-08-17T13:07:00.007Z,91600.25
2022-08-17T13:09:35.399Z,91593.91
2022-08-17T13:12:03.429Z,91582.53
2022-08-17T13:14:33.330Z,91588.47
2022-08-17T13:17:01.429Z,91573.31
2022-08-17T13:19:29.838Z,91585.13
2022-08-17T13:22:07.948Z,91574.81
2022-08-17T13:24:38.241Z,91568.88
2022-08-17T13:27:08.020Z,91576.66
2022-08-17T13:29:35.651Z,91571.28
2022-08-17T13:32:05.007Z,91571.19
2022-08-17T13:34:33.302Z,91565.53
2022-08-17T13:37:00.777Z,91563.03
2022-08-17T13:39:33.840Z,91559.38
2022-08-17T13:42:01.153Z,91556.16
2022-08-17T13:44:28.433Z,91554.28
2022-08-17T13:46:57.235Z,91560.63
2022-08-17T13:49:24.787Z,91561.34
2022-08-17T13:52:09.292Z,91561.72
2022-08-17T13:54:37.655Z,91575.75
2022-08-17T13:57:04.934Z,91572.41
2022-08-17T13:59:52.749Z,91581.03
2022-08-17T14:02:19.572Z,91577.88
2022-08-17T14:04:46.857Z,91577.88
2022-08-17T14:07:14.116Z,91586.16
2022-08-17T14:09:41.411Z,91585.97
2022-08-17T14:12:08.693Z,91577.88
2022-08-17T14:14:36.001Z,91590.03
2022-08-17T14:17:03.281Z,91583.09
2022-08-17T14:19:30.548Z,91583.44
2022-08-17T14:21:57.850Z,91586.03
2022-08-17T14:24:25.123Z,91587.63
2022-08-17T14:26:52.403Z,91586.63
2022-08-17T14:29:19.702Z,91576.66
2022-08-17T14:31:53.384Z,91584.84
2022-08-17T14:34:21.874Z,91582.78
2022-08-17T14:36:49.157Z,91564.50
2022-08-17T14:39:16.488Z,91560.00
2022-08-17T14:41:43.772Z,91559.41
2022-08-17T14:44:13.008Z,91559.97
2022-08-17T14:46:40.394Z,91562.06
2022-08-17T14:49:07.672Z,91563.97
2022-08-17T14:51:35.616Z,91568.00
2022-08-17T14:54:10.842Z,91557.13
2022-08-17T14:56:38.233Z,91563.84
2022-08-17T14:59:05.544Z,91557.00
2022-08-17T15:01:32.882Z,91553.31
2022-08-17T15:04:00.185Z,91550.44
2022-08-17T15:06:27.481Z,91536.91
2022-08-17T15:08:54.749Z,91540.50
2022-08-17T15:11:22.067Z,91544.50
2022-08-17T15:13:52.355Z,91552.69
2022-08-17T15:16:20.444Z,91545.41
2022-08-17T15:18:47.711Z,91549.59
2022-08-17T15:21:14.990Z,91548.84
2022-08-17T15:23:43.565Z,91542.44
2022-08-17T15:26:10.953Z,91534.38
2022-08-17T15:28:38.251Z,91539.00
2022-08-17T15:31:05.533Z,91525.06
2022-08-17T15:33:32.840Z,91524.91
2022-08-17T15:36:00.115Z,91523.03
2022-08-17T15:38:27.391Z,91524.50
2022-08-17T15:40:54.681Z,91526.28
2022-08-17T15:43:27.057Z,91514.81
2022-08-17T15:45:59.608Z,91517.72
2022-08-17T15:48:27.417Z,91509.50
2022-08-17T15:50:54.688Z,91504.59
2022-08-17T15:53:21.964Z,91505.06
2022-08-17T15:55:49.248Z,91498.06
2022-08-17T15:58:19.280Z,91483.59
2022-08-17T16:00:49.422Z,91484.38
2022-08-17T16:04:04.778Z,91476.00
2022-08-17T16:06:08.103Z,91473.72
2022-08-17T16:08:39.020Z,91467.97
2022-08-17T16:11:06.284Z,91468.56
2022-08-17T16:13:33.560Z,91477.63
2022-08-17T16:16:00.907Z,91498.66
2022-08-17T16:18:28.198Z,91490.44
2022-08-17T16:20:55.501Z,91498.81
2022-08-17T16:23:22.886Z,91498.81
2022-08-17T16:25:52.919Z,91479.97
2022-08-17T16:28:21.307Z,91463.34
2022-08-17T16:30:48.618Z,91461.44
2022-08-17T16:33:15.888Z,91485.09
2022-08-17T16:35:43.160Z,91521.41
2022-08-17T16:38:10.473Z,91565.38
2022-08-17T16:40:37.747Z,91603.91
2022-08-17T16:43:05.031Z,91635.50
2022-08-17T16:45:32.356Z,91663.94
2022-08-17T16:47:59.643Z,91703.00
2022-08-17T16:50:26.939Z,91717.31
2022-08-17T16:52:54.230Z,91738.97
2022-08-17T16:55:21.508Z,91743.38
2022-08-17T16:57:50.587Z,91763.09
2022-08-17T17:00:18.186Z,91769.66
2022-08-17T17:02:45.489Z,91766.31
2022-08-17T17:05:12.755Z,91769.13
2022-08-17T17:07:40.043Z,91786.56
2022-08-17T17:10:07.320Z,91790.91
2022-08-17T17:13:03.791Z,91796.66
2022-08-17T17:15:22.371Z,91787.03
2022-08-17T17:17:49.863Z,91793.75
2022-08-17T17:20:17.211Z,91808.34
2022-08-17T17:22:44.513Z,91828.00
2022-08-17T17:25:11.881Z,91852.91
2022-08-17T17:27:39.191Z,91886.41
2022-08-17T17:30:06.478Z,91907.44
2022-08-17T17:32:33.750Z,91903.56
2022-08-17T17:35:01.047Z,91909.94
2022-08-17T17:37:28.324Z,91911.28
2022-08-17T17:39:55.683Z,91912.44
2022-08-17T17:42:22.981Z,91912.16
2022-08-17T17:44:50.266Z,91906.84
2022-08-17T17:47:17.543Z,91901.19
2022-08-17T17:49:44.832Z,91890.31
2022-08-17T17:52:16.780Z,91879.47
2022-08-17T17:54:46.347Z,91889.00
2022-08-17T17:57:13.619Z,91893.09
2022-08-17T17:59:44.030Z,91897.31
2022-08-17T18:02:11.690Z,91906.13
2022-08-17T18:04:39.005Z,91917.13
2022-08-17T18:07:06.307Z,91918.28
2022-08-17T18:09:37.435Z,91936.34
2022-08-17T18:12:06.734Z,91949.41
2022-08-17T18:14:34.148Z,91951.25
2022-08-17T18:17:01.450Z,91960.81
2022-08-17T18:19:28.833Z,91960.47
2022-08-17T18:21:58.083Z,91968.50
2022-08-17T18:24:25.360Z,91961.09
2022-08-17T18:26:52.645Z,91972.44
2022-08-17T18:29:22.425Z,91976.91
2022-08-17T18:31:49.689Z,91979.69
2022-08-17T18:34:45.506Z,91965.63
2022-08-17T18:37:04.228Z,91975.69
2022-08-17T18:39:31.546Z,91970.09
2022-08-17T18:41:58.846Z,91957.31
2022-08-17T18:44:26.138Z,91948.13
2022-08-17T18:46:53.420Z,91944.06
2022-08-17T18:49:20.695Z,91942.13
2022-08-17T18:51:48.000Z,91939.84
2022-08-17T18:54:15.265Z,91953.38
2022-08-17T18:56:42.546Z,91960.84
2022-08-17T18:59:09.847Z,91961.13
2022-08-17T19:01:41.752Z,91960.25
2022-08-17T19:04:21.109Z,91960.06
2022-08-17T19:06:48.490Z,91966.13
2022-08-17T19:09:15.831Z,91968.34
2022-08-17T19:11:43.139Z,91974.59
2022-08-17T19:14:10.445Z,91981.03
2022-08-17T19:16:37.720Z,91982.13
2022-08-17T19:19:04.988Z,91979.34
2022-08-17T19:21:32.302Z,91974.59
2022-08-17T19:23:59.582Z,91982.81
2022-08-17T19:26:54.283Z,91980.66
2022-08-17T19:29:14.106Z,91982.19
2022-08-17T19:31:41.393Z,91988.31
2022-08-17T19:34:08.681Z,91977.97
2022-08-17T19:36:35.977Z,91981.16
2022-08-17T19:39:03.371Z,91984.00
2022-08-17T19:41:32.608Z,91998.13
2022-08-17T19:43:59.880Z,91992.84
2022-08-17T19:46:27.179Z,91997.00
2022-08-17T19:48:54.450Z,91990.53
2022-08-17T19:51:21.772Z,91999.22
2022-08-17T19:54:05.075Z,91988.13
2022-08-17T19:56:33.031Z,91982.59
2022-08-17T19:59:00.304Z,91986.56
2022-08-17T20:01:33.944Z,91983.13
2022-08-17T20:04:01.948Z,91992.59
2022-08-17T20:06:29.240Z,91988.91
2022-08-17T20:08:56.527Z,91997.72
2022-08-17T20:11:23.816Z,92000.22
2022-08-17T20:13:51.086Z,91988.59
2022-08-17T20:16:18.362Z,91996.75
2022-08-17T20:18:47.443Z,91987.53
2022-08-17T20:21:20.374Z,91978.19
2022-08-17T20:23:47.896Z,91965.91
2022-08-17T20:26:19.072Z,91959.16
2022-08-17T20:28:46.772Z,91957.69
2022-08-17T20:31:14.157Z,91948.94
2022-08-17T20:33:41.439Z,91953.97
2022-08-17T20:36:08.714Z,91952.53
2022-08-17T20:38:36.020Z,91953.44
2022-08-17T20:41:03.310Z,91958.41
2022-08-17T20:43:30.919Z,91958.81
2022-08-17T20:45:58.223Z,91967.84
2022-08-17T20:48:37.961Z,91971.59
2022-08-17T20:51:06.135Z,91967.72
2022-08-17T20:53:33.417Z,91957.06
2022-08-17T20:56:00.684Z,91949.97
2022-08-17T20:58:30.817Z,91939.69
2022-08-17T21:00:58.712Z,91935.50
2022-08-17T21:03:26.137Z,91924.53
2022-08-17T21:05:53.410Z,91919.31
2022-08-17T21:08:27.470Z,91923.41
2022-08-17T21:10:54.746Z,91926.63
2022-08-17T21:13:22.027Z,91916.84
2022-08-17T21:15:51.332Z,91915.31
2022-08-17T21:18:18.612Z,91916.75
2022-08-17T21:20:45.880Z,91912.03
2022-08-17T21:23:13.167Z,91918.56
2022-08-17T21:25:40.474Z,91913.16
2022-08-17T21:28:07.748Z,91917.84
2022-08-17T21:30:37.927Z,91924.44
2022-08-17T21:33:07.455Z,91917.75
2022-08-17T21:35:38.937Z,91913.38
2022-08-17T21:38:06.364Z,91918.03
2022-08-17T21:40:33.810Z,91912.97
2022-08-17T21:43:01.094Z,91913.94
2022-08-17T21:45:28.365Z,91909.97
2022-08-17T21:47:55.761Z,91903.59
2022-08-17T21:50:23.040Z,91908.34
2022-08-17T21:52:50.353Z,91911.69
2022-08-17T21:55:17.646Z,91911.94
2022-08-17T21:57:52.902Z,91909.34
2022-08-17T22:00:32.170Z,91899.13
2022-08-17T22:02:59.436Z,91887.41
2022-08-17T22:05:26.709Z,91881.19
2022-08-17T22:07:54.759Z,91883.53
2022-08-17T22:10:22.038Z,91873.59
2022-08-17T22:12:49.315Z,91870.41
2022-08-17T22:15:16.619Z,91868.06
2022-08-17T22:17:44.026Z,91884.78
2022-08-17T22:20:11.354Z,91901.97
2022-08-17T22:22:38.656Z,91922.44
2022-08-17T22:25:05.950Z,91930.50
2022-08-17T22:27:33.229Z,91932.34
2022-08-17T22:30:00.501Z,91932.34
2022-08-17T22:32:27.798Z,91934.19
2022-08-17T22:34:56.501Z,91936.81
2022-08-17T22:37:26.737Z,91937.19
2022-08-17T22:39:55.223Z,91928.91
2022-08-17T22:42:22.508Z,91927.13
2022-08-17T22:44:49.775Z,91931.94
2022-08-17T22:47:17.179Z,91931.72
2022-08-17T22:49:54.208Z,91921.94
2022-08-17T22:52:21.872Z,91929.13
2022-08-17T22:54:49.145Z,91931.31
2022-08-17T22:57:18.977Z,91935.38
2022-08-17T22:59:46.458Z,91922.25
2022-08-17T23:02:13.755Z,91916.91
2022-08-17T23:04:41.051Z,91925.38
2022-08-17T23:07:08.327Z,91921.50
2022-08-17T23:09:35.615Z,91920.38
2022-08-17T23:12:02.896Z,91932.09
2022-08-17T23:14:30.160Z,91939.41
2022-08-17T23:16:57.463Z,91932.59
2022-08-17T23:19:24.732Z,91934.69
2022-08-17T23:21:52.024Z,91932.75
2022-08-17T23:24:19.298Z,91935.84
2022-08-17T23:26:46.574Z,91930.06
2022-08-17T23:29:13.873Z,91933.13
2022-08-17T23:31:41.140Z,91927.88
2022-08-17T23:34:09.159Z,91926.78
2022-08-17T23:36:36.586Z,91928.81
2022-08-17T23:39:03.856Z,91930.41
2022-08-17T23:41:31.163Z,91923.81
2022-08-17T23:43:58.439Z,91926.84
2022-08-17T23:46:25.724Z,91923.09
2022-08-17T23:48:53.009Z,91920.19
2022-08-17T23:51:20.294Z,91919.00
2022-08-17T23:53:47.596Z,91919.22
2022-08-17T23:56:14.879Z,91912.66
2022-08-17T23:58:42.526Z,91914.47
